createdAt,value
2023-05-18T03:03:03.320Z,99638.25
2023-05-18T03:04:05.740Z,99634.63
2023-05-18T03:05:09.810Z,99631.19
2023-05-18T03:06:11.836Z,99634.63
2023-05-18T03:07:14.664Z,99633.19
2023-05-18T03:08:16.604Z,99628.09
2023-05-18T03:09:20.023Z,99629.91
2023-05-18T03:10:22.352Z,99625.75
2023-05-18T03:11:26.172Z,99629.00
2023-05-18T03:12:28.281Z,99629.00
2023-05-18T03:13:31.351Z,99629.00
2023-05-18T03:14:34.250Z,99632.28
2023-05-18T03:15:37.823Z,99636.44
2023-05-18T03:16:40.593Z,99635.72
2023-05-18T03:17:48.155Z,99632.63
2023-05-18T03:18:51.712Z,99631.72
2023-05-18T03:19:54.673Z,99630.84
2023-05-18T03:21:01.893Z,99637.91
2023-05-18T03:22:05.914Z,99636.81
2023-05-18T03:23:08.582Z,99632.84
2023-05-18T03:24:15.000Z,99638.06
2023-05-18T03:25:19.860Z,99632.09
2023-05-18T03:26:26.088Z,99631.00
2023-05-18T03:27:28.451Z,99637.19
2023-05-18T03:28:32.090Z,99637.19
2023-05-18T03:29:34.628Z,99633.91
2023-05-18T03:30:39.618Z,99638.41
2023-05-18T03:31:41.782Z,99640.06
2023-05-18T03:32:48.511Z,99635.19
2023-05-18T03:33:52.496Z,99637.91
2023-05-18T03:34:55.797Z,99641.16
2023-05-18T03:36:00.494Z,99636.81
2023-05-18T03:37:04.089Z,99639.34
2023-05-18T03:38:07.669Z,99637.53
2023-05-18T03:39:12.232Z,99637.53
2023-05-18T03:40:16.561Z,99638.28
2023-05-18T03:41:22.016Z,99638.81
2023-05-18T03:42:25.801Z,99642.63
2023-05-18T03:43:29.682Z,99642.25
2023-05-18T03:44:31.963Z,99633.91
2023-05-18T03:45:34.905Z,99642.63
2023-05-18T03:46:36.927Z,99639.34
2023-05-18T03:47:41.212Z,99636.63
2023-05-18T03:48:43.248Z,99647.69
2023-05-18T03:49:47.393Z,99644.06
2023-05-18T03:50:49.569Z,99644.06
2023-05-18T03:51:54.443Z,99652.75
2023-05-18T03:52:56.626Z,99644.41
2023-05-18T03:53:59.602Z,99644.78
2023-05-18T03:55:02.046Z,99648.22
2023-05-18T03:56:04.981Z,99652.03
2023-05-18T03:57:06.896Z,99651.31
2023-05-18T03:58:09.830Z,99648.03
2023-05-18T03:59:11.869Z,99649.88
2023-05-18T04:00:15.969Z,99645.69
2023-05-18T04:01:25.831Z,99651.66
2023-05-18T04:02:28.823Z,99644.78
2023-05-18T04:03:31.559Z,99648.59
2023-05-18T04:04:34.769Z,99645.16
2023-05-18T04:05:38.149Z,99646.25
2023-05-18T04:06:41.079Z,99642.97
2023-05-18T04:07:44.289Z,99645.69
2023-05-18T04:08:47.417Z,99649.47
2023-05-18T04:09:50.433Z,99648.59
2023-05-18T04:10:53.585Z,99652.75
2023-05-18T04:11:55.649Z,99649.13
2023-05-18T04:12:58.553Z,99654.56
2023-05-18T04:14:01.148Z,99649.88
2023-05-18T04:15:04.500Z,99650.22
2023-05-18T04:16:07.703Z,99655.28
2023-05-18T04:17:10.649Z,99653.84
2023-05-18T04:18:14.846Z,99656.56
2023-05-18T04:19:19.099Z,99650.56
2023-05-18T04:20:21.232Z,99653.84
2023-05-18T04:21:25.438Z,99647.31
2023-05-18T04:22:31.294Z,99657.81
2023-05-18T04:23:38.887Z,99647.13
2023-05-18T04:24:41.469Z,99654.38
2023-05-18T04:25:46.018Z,99652.59
2023-05-18T04:26:48.659Z,99646.06
2023-05-18T04:27:52.787Z,99650.59
2023-05-18T04:29:00.300Z,99654.22
2023-05-18T04:30:03.291Z,99654.56
2023-05-18T04:31:06.745Z,99657.09
2023-05-18T04:32:10.692Z,99655.66
2023-05-18T04:33:16.481Z,99655.25
2023-05-18T04:34:19.992Z,99653.81
2023-05-18T04:35:24.876Z,99656.53
2023-05-18T04:36:30.954Z,99658.72
2023-05-18T04:37:36.375Z,99662.69
2023-05-18T04:38:39.436Z,99654.50
2023-05-18T04:39:42.428Z,99655.59
2023-05-18T04:40:46.753Z,99657.78
2023-05-18T04:41:50.694Z,99661.41
2023-05-18T04:42:52.697Z,99653.03
2023-05-18T04:44:00.960Z,99659.03
2023-05-18T04:45:03.398Z,99653.38
2023-05-18T04:46:07.387Z,99655.22
2023-05-18T04:47:09.811Z,99653.75
2023-05-18T04:48:14.390Z,99655.91
2023-05-18T04:49:16.315Z,99653.56
2023-05-18T04:50:19.978Z,99661.69
2023-05-18T04:51:21.988Z,99659.34
2023-05-18T04:52:26.278Z,99659.69
2023-05-18T04:53:28.259Z,99662.41
2023-05-18T04:54:31.894Z,99660.41
2023-05-18T04:55:35.201Z,99658.41
2023-05-18T04:56:42.422Z,99665.47
2023-05-18T04:57:44.913Z,99670.31
2023-05-18T04:58:49.660Z,99659.44
2023-05-18T04:59:53.276Z,99666.69
2023-05-18T05:00:58.447Z,99655.03
2023-05-18T05:56:04.416Z,99658.81
2023-05-18T05:57:10.360Z,99658.13
2023-05-18T05:58:13.285Z,99657.31
2023-05-18T05:59:17.592Z,99658.28
2023-05-18T06:00:23.242Z,99650.19
2023-05-18T06:01:32.172Z,99655.63
2023-05-18T06:02:34.407Z,99649.28
2023-05-18T06:03:37.820Z,99655.50
2023-05-18T06:04:41.493Z,99650.88
2023-05-18T06:05:45.364Z,99655.69
2023-05-18T06:06:48.722Z,99652.72
2023-05-18T06:07:52.985Z,99648.25
2023-05-18T06:08:55.360Z,99656.88
2023-05-18T06:09:58.276Z,99657.47
2023-05-18T06:11:00.583Z,99655.88
2023-05-18T06:12:05.662Z,99660.69
2023-05-18T06:13:07.965Z,99656.50
2023-05-18T06:14:17.561Z,99656.81
2023-05-18T06:15:20.087Z,99649.78
2023-05-18T06:16:22.977Z,99652.63
2023-05-18T06:17:25.936Z,99654.13
2023-05-18T06:18:27.981Z,99649.50
2023-05-18T06:19:35.867Z,99657.78
2023-05-18T06:20:37.916Z,99653.31
2023-05-18T06:21:40.929Z,99660.25
2023-05-18T06:22:44.695Z,99656.06
2023-05-18T06:24:01.485Z,99652.50
2023-05-18T06:25:11.874Z,99654.59
2023-05-18T06:26:24.971Z,99653.69
2023-05-18T06:27:48.499Z,99654.31
2023-05-18T06:28:58.388Z,99649.81
2023-05-18T06:30:10.980Z,99646.47
2023-05-18T06:31:30.265Z,99646.41
2023-05-18T06:32:45.335Z,99649.84
2023-05-18T06:33:47.901Z,99649.19
2023-05-18T06:34:50.791Z,99638.41
2023-05-18T06:35:52.994Z,99641.72
2023-05-18T06:36:58.654Z,99645.63
2023-05-18T06:38:01.611Z,99642.25
2023-05-18T06:39:04.948Z,99641.94
2023-05-18T06:40:08.952Z,99648.84
2023-05-18T06:41:11.235Z,99642.19
2023-05-18T06:42:14.409Z,99648.50
2023-05-18T06:43:28.645Z,99650.84
2023-05-18T06:44:37.996Z,99646.66
2023-05-18T06:45:43.599Z,99644.53
2023-05-18T06:46:51.644Z,99647.34
2023-05-18T06:47:58.925Z,99646.09
2023-05-18T06:49:02.189Z,99654.53
2023-05-18T06:50:05.259Z,99652.50
2023-05-18T06:51:08.383Z,99650.84
2023-05-18T06:52:11.401Z,99649.00
2023-05-18T06:53:13.703Z,99645.16
2023-05-18T06:54:16.759Z,99646.22
2023-05-18T06:55:20.085Z,99648.00
2023-05-18T06:56:23.209Z,99649.94
2023-05-18T06:57:26.677Z,99649.03
2023-05-18T06:58:30.993Z,99654.19
2023-05-18T06:59:36.998Z,99645.44
2023-05-18T07:00:40.134Z,99645.44
2023-05-18T07:01:44.125Z,99654.19
2023-05-18T07:02:47.545Z,99652.38
2023-05-18T07:03:49.837Z,99652.66
2023-05-18T07:04:53.095Z,99653.53
2023-05-18T07:05:55.118Z,99641.38
2023-05-18T07:06:58.565Z,99650.53
2023-05-18T07:08:01.177Z,99651.94
2023-05-18T07:09:05.565Z,99661.47
2023-05-18T07:10:08.971Z,99652.94
2023-05-18T07:11:12.514Z,99649.78
2023-05-18T07:12:19.296Z,99643.03
2023-05-18T07:13:23.063Z,99641.38
2023-05-18T07:14:27.316Z,99642.88
2023-05-18T07:15:32.364Z,99637.75
2023-05-18T07:16:38.237Z,99639.44
2023-05-18T07:17:42.157Z,99641.09
2023-05-18T07:18:46.177Z,99638.78
2023-05-18T07:19:49.144Z,99634.19
2023-05-18T07:20:52.914Z,99644.09
2023-05-18T07:21:57.091Z,99641.53
2023-05-18T07:23:00.671Z,99641.28
2023-05-18T07:24:04.517Z,99639.34
2023-05-18T07:25:07.881Z,99649.13
2023-05-18T07:26:12.228Z,99633.56
2023-05-18T07:27:17.927Z,99640.91
2023-05-18T07:28:21.934Z,99643.72
2023-05-18T07:29:25.006Z,99640.19
2023-05-18T07:30:30.705Z,99633.50
2023-05-18T07:31:34.310Z,99639.78
2023-05-18T07:32:38.402Z,99642.44
2023-05-18T07:33:41.437Z,99645.53
2023-05-18T07:34:46.898Z,99634.75
2023-05-18T07:35:50.794Z,99634.19
2023-05-18T07:36:54.744Z,99636.53
2023-05-18T07:37:57.792Z,99635.53
2023-05-18T07:39:01.812Z,99636.81
2023-05-18T07:40:05.242Z,99633.97
2023-05-18T07:41:09.219Z,99630.66
2023-05-18T07:42:12.464Z,99630.88
2023-05-18T07:43:18.926Z,99633.22
2023-05-18T07:44:22.207Z,99627.81
2023-05-18T07:45:26.323Z,99633.72
2023-05-18T07:46:31.869Z,99626.47
2023-05-18T07:47:36.369Z,99629.53
2023-05-18T07:48:41.043Z,99621.88
2023-05-18T07:49:45.304Z,99616.59
2023-05-18T07:50:49.331Z,99616.88
2023-05-18T07:51:53.699Z,99622.75
2023-05-18T07:52:57.751Z,99618.06
2023-05-18T07:54:00.825Z,99611.13
2023-05-18T07:55:04.968Z,99611.13
2023-05-18T07:56:08.943Z,99617.03
2023-05-18T07:57:13.698Z,99611.88
2023-05-18T07:58:16.373Z,99611.81
2023-05-18T07:59:20.250Z,99611.03
2023-05-18T08:00:24.702Z,99609.94
2023-05-18T08:01:28.020Z,99603.22
2023-05-18T08:02:34.774Z,99613.97
2023-05-18T08:03:40.186Z,99604.25
2023-05-18T08:04:45.416Z,99607.31
2023-05-18T08:05:48.829Z,99613.78
2023-05-18T08:06:54.925Z,99614.50
2023-05-18T08:07:59.011Z,99615.53
2023-05-18T08:09:01.907Z,99606.84
2023-05-18T08:10:06.361Z,99618.22
2023-05-18T08:11:13.283Z,99617.94
2023-05-18T08:12:17.703Z,99612.47
2023-05-18T08:13:20.639Z,99610.91
2023-05-18T08:14:26.027Z,99604.94
2023-05-18T08:15:29.460Z,99612.38
2023-05-18T08:16:37.686Z,99610.81
2023-05-18T08:17:42.126Z,99607.88
2023-05-18T08:18:47.228Z,99613.28
2023-05-18T08:19:51.448Z,99607.38
2023-05-18T08:20:56.014Z,99614.31
2023-05-18T08:22:03.953Z,99612.06
2023-05-18T08:23:10.841Z,99601.84
2023-05-18T08:24:14.784Z,99613.41
2023-05-18T08:25:17.879Z,99611.03
2023-05-18T08:26:22.381Z,99611.19
2023-05-18T08:27:25.506Z,99607.19
2023-05-18T08:28:29.561Z,99602.94
2023-05-18T08:29:32.447Z,99607.56
2023-05-18T08:30:36.589Z,99604.50
2023-05-18T08:31:41.827Z,99592.81
2023-05-18T08:32:50.189Z,99590.13
2023-05-18T08:33:53.626Z,99587.41
2023-05-18T08:34:57.806Z,99591.88
2023-05-18T08:36:00.580Z,99586.06
2023-05-18T08:37:04.989Z,99590.44
2023-05-18T08:38:09.310Z,99584.94
2023-05-18T08:39:13.747Z,99580.91
2023-05-18T08:40:17.882Z,99584.25
2023-05-18T08:41:26.373Z,99579.97
2023-05-18T08:42:48.499Z,99581.31
2023-05-18T08:44:03.257Z,99584.91
2023-05-18T08:45:15.564Z,99582.13
2023-05-18T08:46:22.003Z,99579.03
2023-05-18T08:47:27.014Z,99581.06
2023-05-18T08:48:32.965Z,99584.97
2023-05-18T08:49:38.118Z,99580.13
2023-05-18T08:50:42.380Z,99581.63
2023-05-18T08:51:48.456Z,99578.16
2023-05-18T08:52:56.756Z,99584.22
2023-05-18T08:54:01.335Z,99579.00
2023-05-18T08:55:10.953Z,99573.75
2023-05-18T08:56:16.835Z,99581.47
2023-05-18T08:57:23.815Z,99583.31
2023-05-18T08:58:36.429Z,99577.75
2023-05-18T08:59:43.797Z,99579.25
2023-05-18T09:00:46.872Z,99575.63
2023-05-18T09:01:50.953Z,99568.03
2023-05-18T09:02:54.817Z,99582.44
2023-05-18T09:04:00.836Z,99577.31
2023-05-18T09:05:04.949Z,99571.94
2023-05-18T09:06:10.674Z,99577.31
2023-05-18T09:07:15.072Z,99586.53
2023-05-18T09:08:20.706Z,99584.25
2023-05-18T09:09:24.807Z,99586.09
2023-05-18T09:10:28.555Z,99573.72
2023-05-18T09:11:35.383Z,99584.63
2023-05-18T09:12:44.039Z,99584.50
2023-05-18T09:13:49.599Z,99582.09
2023-05-18T09:14:56.690Z,99580.28
2023-05-18T09:16:00.250Z,99577.88
2023-05-18T09:17:04.406Z,99575.09
2023-05-18T09:18:07.813Z,99579.13
2023-05-18T09:19:15.168Z,99573.22
2023-05-18T09:20:19.644Z,99572.13
2023-05-18T09:21:22.699Z,99574.50
2023-05-18T09:22:25.209Z,99576.88
2023-05-18T09:23:30.032Z,99577.72
2023-05-18T09:24:35.996Z,99564.56
2023-05-18T09:25:46.812Z,99562.66
2023-05-18T09:26:52.138Z,99575.50
2023-05-18T09:27:56.255Z,99575.72
2023-05-18T09:29:01.783Z,99578.09
2023-05-18T09:30:07.943Z,99576.72
2023-05-18T09:31:18.483Z,99577.72
2023-05-18T09:32:23.846Z,99568.38
2023-05-18T09:33:34.788Z,99572.56
2023-05-18T09:34:46.385Z,99577.50
2023-05-18T09:35:53.316Z,99582.16
2023-05-18T09:36:59.385Z,99581.72
2023-05-18T09:38:06.324Z,99577.44
2023-05-18T09:39:13.763Z,99571.81
2023-05-18T09:40:21.769Z,99574.72
2023-05-18T09:41:31.429Z,99577.78
2023-05-18T09:42:40.587Z,99566.16
2023-05-18T09:43:45.375Z,99568.56
2023-05-18T09:44:50.562Z,99563.19
2023-05-18T09:45:55.896Z,99565.19
2023-05-18T09:46:59.509Z,99571.34
2023-05-18T09:48:04.664Z,99580.13
2023-05-18T09:49:10.987Z,99573.94
2023-05-18T09:50:21.056Z,99581.81
2023-05-18T09:51:26.275Z,99576.72
2023-05-18T09:52:30.924Z,99575.44
2023-05-18T09:53:38.060Z,99569.88
2023-05-18T09:54:42.229Z,99561.50
2023-05-18T09:55:49.502Z,99554.22
2023-05-18T09:57:09.061Z,99563.38
2023-05-18T09:58:14.880Z,99558.78
2023-05-18T09:59:19.350Z,99552.84
2023-05-18T10:00:24.120Z,99558.63
2023-05-18T10:01:30.529Z,99544.22
2023-05-18T10:02:33.843Z,99547.81
2023-05-18T10:03:39.987Z,99541.59
2023-05-18T10:04:45.041Z,99543.63
2023-05-18T10:05:51.555Z,99543.03
2023-05-18T10:06:56.110Z,99553.06
2023-05-18T10:07:59.530Z,99543.03
2023-05-18T10:09:05.949Z,99542.72
2023-05-18T10:10:09.592Z,99543.59
2023-05-18T10:11:13.593Z,99539.44
2023-05-18T10:12:17.875Z,99544.13
2023-05-18T10:13:23.091Z,99563.75
2023-05-18T10:14:34.241Z,99545.50
2023-05-18T10:15:40.177Z,99556.81
2023-05-18T10:16:57.220Z,99548.84
2023-05-18T10:18:04.809Z,99552.44
2023-05-18T10:19:11.485Z,99547.03
2023-05-18T10:20:19.520Z,99555.19
2023-05-18T10:21:31.265Z,99554.63
2023-05-18T10:22:36.330Z,99572.16
2023-05-18T10:23:42.528Z,99559.41
2023-05-18T10:24:51.126Z,99546.47
2023-05-18T10:25:56.239Z,99546.06
2023-05-18T10:27:03.297Z,99546.03
2023-05-18T10:28:11.798Z,99541.00
2023-05-18T10:29:16.664Z,99546.59
2023-05-18T10:30:20.726Z,99534.53
2023-05-18T10:31:27.609Z,99535.03
2023-05-18T10:32:33.952Z,99533.81
2023-05-18T10:33:38.554Z,99535.59
2023-05-18T10:34:45.284Z,99542.63
2023-05-18T10:35:49.700Z,99543.00
2023-05-18T10:36:55.595Z,99535.25
2023-05-18T10:38:01.007Z,99540.44
2023-05-18T10:39:07.398Z,99540.66
2023-05-18T10:40:13.110Z,99549.19
2023-05-18T10:41:25.511Z,99549.31
2023-05-18T10:42:31.692Z,99543.84
2023-05-18T10:43:37.551Z,99552.63
2023-05-18T10:44:41.706Z,99549.34
2023-05-18T10:45:49.026Z,99545.16
2023-05-18T10:46:52.710Z,99536.56
2023-05-18T10:47:59.471Z,99539.06
2023-05-18T10:49:12.021Z,99540.06
2023-05-18T10:50:16.981Z,99525.88
2023-05-18T10:51:22.973Z,99530.38
2023-05-18T10:52:32.375Z,99528.16
2023-05-18T10:53:37.237Z,99536.06
2023-05-18T10:54:43.453Z,99534.47
2023-05-18T10:55:47.402Z,99537.19
2023-05-18T10:56:54.497Z,99529.56
2023-05-18T10:58:04.248Z,99528.22
2023-05-18T10:59:10.594Z,99544.19
2023-05-18T11:00:15.179Z,99539.97
2023-05-18T11:01:19.520Z,99543.31
2023-05-18T11:02:23.684Z,99539.41
2023-05-18T11:03:28.873Z,99528.69
2023-05-18T11:04:33.878Z,99523.13
2023-05-18T11:05:36.902Z,99522.69
2023-05-18T11:06:43.613Z,99518.63
2023-05-18T11:07:48.480Z,99526.31
2023-05-18T11:08:53.167Z,99513.72
2023-05-18T11:09:56.973Z,99518.56
2023-05-18T11:11:04.452Z,99515.63
2023-05-18T11:12:13.453Z,99517.53
2023-05-18T11:13:17.381Z,99521.63
2023-05-18T11:14:28.705Z,99514.59
2023-05-18T11:15:55.424Z,99517.56
2023-05-18T11:17:18.177Z,99518.91
2023-05-18T11:18:21.427Z,99514.25
2023-05-18T11:19:28.291Z,99513.88
2023-05-18T11:20:31.409Z,99513.81
2023-05-18T11:21:54.492Z,99514.09
2023-05-18T11:23:04.978Z,99511.81
2023-05-18T11:24:18.069Z,99508.47
2023-05-18T11:25:40.354Z,99503.16
2023-05-18T11:26:43.284Z,99494.91
2023-05-18T11:27:46.970Z,99516.16
2023-05-18T11:28:53.063Z,99503.88
2023-05-18T11:30:11.769Z,99510.00
2023-05-18T11:31:20.125Z,99508.63
2023-05-18T11:32:30.107Z,99509.25
2023-05-18T11:33:36.774Z,99512.81
2023-05-18T11:34:45.444Z,99513.53
2023-05-18T11:35:58.141Z,99515.69
2023-05-18T11:37:01.098Z,99505.84
2023-05-18T11:38:10.476Z,99508.75
2023-05-18T11:39:25.261Z,99508.56
2023-05-18T11:40:47.450Z,99492.91
2023-05-18T11:42:03.210Z,99504.22
2023-05-18T11:43:06.090Z,99495.53
2023-05-18T11:44:20.875Z,99489.69
2023-05-18T11:45:25.705Z,99488.94
2023-05-18T11:46:30.673Z,99490.22
2023-05-18T11:47:38.229Z,99502.22
2023-05-18T11:48:45.364Z,99490.69
2023-05-18T11:49:50.961Z,99491.25
2023-05-18T11:50:55.280Z,99491.63
2023-05-18T11:52:04.248Z,99492.50
2023-05-18T11:53:08.259Z,99493.88
2023-05-18T11:54:12.669Z,99488.59
2023-05-18T11:55:18.349Z,99485.97
2023-05-18T11:56:21.813Z,99493.38
2023-05-18T11:57:28.710Z,99497.59
2023-05-18T11:58:32.103Z,99484.59
2023-05-18T11:59:39.109Z,99477.88
2023-05-18T12:00:43.441Z,99478.38
2023-05-18T12:01:46.366Z,99481.22
2023-05-18T12:02:53.072Z,99485.84
2023-05-18T12:03:56.725Z,99486.88
2023-05-18T12:05:02.352Z,99486.28
2023-05-18T12:06:07.181Z,99481.00
2023-05-18T12:07:12.174Z,99474.69
2023-05-18T12:08:19.210Z,99479.81
2023-05-18T12:09:23.808Z,99477.50
2023-05-18T12:10:31.796Z,99484.56
2023-05-18T12:11:35.515Z,99479.75
2023-05-18T12:12:39.808Z,99498.03
2023-05-18T12:13:44.136Z,99494.22
2023-05-18T12:14:56.849Z,99485.06
2023-05-18T12:16:01.029Z,99498.72
2023-05-18T12:17:05.672Z,99488.25
2023-05-18T12:18:09.892Z,99488.81
2023-05-18T12:19:13.107Z,99488.59
2023-05-18T12:20:18.184Z,99488.75
2023-05-18T12:21:22.697Z,99486.50
2023-05-18T12:22:28.326Z,99486.13
2023-05-18T12:23:38.240Z,99480.25
2023-05-18T12:24:45.339Z,99489.53
2023-05-18T12:25:49.530Z,99485.00
2023-05-18T12:26:54.330Z,99480.44
2023-05-18T12:27:58.673Z,99478.69
2023-05-18T12:29:02.425Z,99481.38
2023-05-18T12:30:07.676Z,99471.22
2023-05-18T12:31:10.588Z,99465.28
2023-05-18T12:32:15.086Z,99474.84
2023-05-18T12:33:18.667Z,99478.94
2023-05-18T12:34:21.558Z,99480.56
2023-05-18T12:35:26.827Z,99480.16
2023-05-18T12:36:30.207Z,99473.09
2023-05-18T12:37:41.635Z,99472.94
2023-05-18T12:38:50.779Z,99463.56
2023-05-18T12:39:56.073Z,99477.69
2023-05-18T12:40:59.091Z,99472.69
2023-05-18T12:42:12.144Z,99482.44
2023-05-18T12:43:14.910Z,99479.00
2023-05-18T12:44:19.297Z,99482.09
2023-05-18T12:45:25.214Z,99484.84
2023-05-18T12:46:28.722Z,99482.19
2023-05-18T12:47:35.848Z,99488.59
2023-05-18T12:48:39.340Z,99481.34
2023-05-18T12:49:45.244Z,99486.28
2023-05-18T12:50:48.943Z,99475.66
2023-05-18T12:51:56.734Z,99481.66
2023-05-18T12:52:59.433Z,99475.06
2023-05-18T12:54:04.361Z,99475.03
2023-05-18T12:55:10.706Z,99478.25
2023-05-18T12:56:14.441Z,99470.50
2023-05-18T12:57:21.294Z,99475.78
2023-05-18T12:58:25.103Z,99471.47
2023-05-18T12:59:28.675Z,99470.31
2023-05-18T13:00:34.387Z,99465.59
2023-05-18T13:01:44.086Z,99450.72
2023-05-18T13:02:48.200Z,99443.25
2023-05-18T13:03:56.322Z,99444.03
2023-05-18T13:05:04.426Z,99440.44
2023-05-18T13:06:09.914Z,99438.34
2023-05-18T13:07:13.822Z,99437.22
2023-05-18T13:08:18.316Z,99449.03
2023-05-18T13:09:22.032Z,99455.72
2023-05-18T13:10:26.130Z,99460.06
2023-05-18T13:11:30.297Z,99452.22
2023-05-18T13:12:38.860Z,99451.84
2023-05-18T13:13:59.240Z,99452.75
2023-05-18T13:15:11.978Z,99453.16
2023-05-18T13:16:18.960Z,99444.06
2023-05-18T13:17:24.675Z,99447.19
2023-05-18T13:18:28.634Z,99446.09
2023-05-18T13:19:33.534Z,99449.03
2023-05-18T13:20:39.235Z,99446.84
2023-05-18T13:21:42.850Z,99440.25
2023-05-18T13:22:45.608Z,99445.63
2023-05-18T13:23:49.290Z,99442.75
2023-05-18T13:24:52.429Z,99434.28
2023-05-18T13:25:59.020Z,99436.34
2023-05-18T13:27:02.708Z,99427.38
2023-05-18T13:28:07.286Z,99427.88
2023-05-18T13:29:11.392Z,99427.38
2023-05-18T13:30:16.555Z,99426.72
2023-05-18T13:31:22.637Z,99419.88
2023-05-18T13:32:25.496Z,99422.59
2023-05-18T13:33:29.256Z,99420.84
2023-05-18T13:34:33.567Z,99432.44
2023-05-18T13:35:36.746Z,99430.81
2023-05-18T13:36:41.221Z,99423.22
2023-05-18T13:37:44.136Z,99424.69
2023-05-18T13:38:47.736Z,99414.13
2023-05-18T13:39:50.642Z,99415.00
2023-05-18T13:40:54.827Z,99418.34
2023-05-18T13:42:00.216Z,99414.72
2023-05-18T13:43:06.233Z,99410.16
2023-05-18T13:44:10.056Z,99414.88
2023-05-18T13:45:15.779Z,99411.97
2023-05-18T13:46:20.746Z,99414.63
2023-05-18T13:47:26.389Z,99406.56
2023-05-18T13:48:30.552Z,99408.34
2023-05-18T13:49:35.210Z,99406.91
2023-05-18T13:50:39.243Z,99417.84
2023-05-18T13:51:42.879Z,99404.88
2023-05-18T13:52:47.752Z,99405.25
2023-05-18T13:53:51.467Z,99410.94
2023-05-18T13:54:56.384Z,99402.44
2023-05-18T13:56:00.472Z,99405.50
2023-05-18T13:57:04.900Z,99406.13
2023-05-18T13:58:08.741Z,99400.91
2023-05-18T13:59:12.095Z,99393.38
2023-05-18T14:00:17.478Z,99392.44
2023-05-18T14:01:22.708Z,99391.47
2023-05-18T14:02:27.245Z,99387.00
2023-05-18T14:03:31.657Z,99397.22
2023-05-18T14:04:34.692Z,99387.00
2023-05-18T14:05:39.235Z,99380.34
2023-05-18T14:06:42.026Z,99383.97
2023-05-18T14:07:46.608Z,99387.63
2023-05-18T14:08:51.412Z,99389.06
2023-05-18T14:09:54.120Z,99392.44
2023-05-18T14:10:57.946Z,99388.59
2023-05-18T14:12:00.747Z,99388.56
2023-05-18T14:13:08.755Z,99386.25
2023-05-18T14:14:12.110Z,99389.25
2023-05-18T14:15:17.726Z,99385.72
2023-05-18T14:16:22.408Z,99383.88
2023-05-18T14:17:25.726Z,99385.91
2023-05-18T14:18:30.770Z,99383.97
2023-05-18T14:19:34.044Z,99376.06
2023-05-18T14:20:38.756Z,99384.31
2023-05-18T14:21:41.219Z,99383.13
2023-05-18T14:22:45.029Z,99380.66
2023-05-18T14:23:49.359Z,99381.09
2023-05-18T14:24:53.382Z,99373.03
2023-05-18T14:25:56.323Z,99376.78
2023-05-18T14:27:00.911Z,99376.81
2023-05-18T14:28:05.180Z,99371.25
2023-05-18T14:29:09.445Z,99360.84
2023-05-18T14:30:14.604Z,99367.00
2023-05-18T14:31:19.137Z,99367.00
2023-05-18T14:32:22.099Z,99378.19
2023-05-18T14:33:26.086Z,99357.00
2023-05-18T14:34:30.070Z,99357.81
2023-05-18T14:35:33.958Z,99356.19
2023-05-18T14:36:36.545Z,99356.59
2023-05-18T14:37:40.079Z,99364.75
2023-05-18T14:38:43.834Z,99369.38
2023-05-18T14:39:49.103Z,99371.47
2023-05-18T14:40:51.688Z,99372.34
2023-05-18T14:41:55.453Z,99376.63
2023-05-18T14:42:59.642Z,99356.78
2023-05-18T14:44:04.406Z,99365.91
2023-05-18T14:45:09.699Z,99371.41
2023-05-18T14:46:12.895Z,99368.00
2023-05-18T14:47:17.738Z,99373.19
2023-05-18T14:48:21.638Z,99366.38
2023-05-18T14:49:25.050Z,99362.25
2023-05-18T14:50:29.563Z,99356.25
2023-05-18T14:51:32.455Z,99353.28
2023-05-18T14:52:36.134Z,99349.47
2023-05-18T14:53:39.073Z,99353.72
2023-05-18T14:54:43.215Z,99354.72
2023-05-18T14:55:46.443Z,99347.75
2023-05-18T14:56:50.845Z,99348.56
2023-05-18T14:57:55.116Z,99351.81
2023-05-18T14:58:57.346Z,99349.41
2023-05-18T15:00:03.222Z,99346.59
2023-05-18T15:01:07.729Z,99363.88
2023-05-18T15:02:12.519Z,99355.94
2023-05-18T15:03:16.173Z,99355.69
2023-05-18T15:04:22.065Z,99351.50
2023-05-18T15:05:24.903Z,99361.59
2023-05-18T15:06:29.645Z,99362.38
2023-05-18T15:07:34.350Z,99360.25
2023-05-18T15:08:37.940Z,99364.84
2023-05-18T15:09:41.660Z,99363.63
2023-05-18T15:10:45.172Z,99359.56
2023-05-18T15:11:49.637Z,99361.31
2023-05-18T15:12:52.945Z,99360.88
2023-05-18T15:13:56.891Z,99352.78
2023-05-18T15:15:01.903Z,99359.22
2023-05-18T15:16:05.149Z,99351.94
2023-05-18T15:17:08.969Z,99355.06
2023-05-18T15:18:12.785Z,99348.88
2023-05-18T15:19:16.559Z,99349.44
2023-05-18T15:20:19.569Z,99346.03
2023-05-18T15:21:23.885Z,99344.63
2023-05-18T15:22:27.593Z,99350.00
2023-05-18T15:23:30.223Z,99346.03
2023-05-18T15:24:34.466Z,99344.03
2023-05-18T15:25:37.478Z,99343.16
2023-05-18T15:26:42.103Z,99347.03
2023-05-18T15:27:45.912Z,99348.03
2023-05-18T15:28:49.450Z,99350.34
2023-05-18T15:29:53.647Z,99351.94
2023-05-18T15:30:58.012Z,99348.38
2023-05-18T15:32:01.730Z,99348.38
2023-05-18T15:33:06.383Z,99341.69
2023-05-18T15:34:09.404Z,99342.25
2023-05-18T15:35:13.336Z,99341.47
2023-05-18T15:36:16.275Z,99332.91
2023-05-18T15:37:19.759Z,99333.41
2023-05-18T15:38:22.354Z,99337.56
2023-05-18T15:39:26.752Z,99333.06
2023-05-18T15:40:29.406Z,99330.66
2023-05-18T15:41:35.252Z,99323.91
2023-05-18T15:42:38.127Z,99330.72
2023-05-18T15:43:42.347Z,99332.94
2023-05-18T15:44:46.481Z,99331.53
2023-05-18T15:45:49.322Z,99325.06
2023-05-18T15:46:55.129Z,99334.00
2023-05-18T15:47:58.653Z,99337.69
2023-05-18T15:49:02.581Z,99324.31
2023-05-18T15:50:06.293Z,99328.19
2023-05-18T15:51:10.488Z,99326.31
2023-05-18T15:52:13.026Z,99337.13
2023-05-18T15:53:16.948Z,99330.78
2023-05-18T15:54:19.681Z,99334.47
2023-05-18T15:55:23.260Z,99334.47
2023-05-18T15:56:26.104Z,99337.66
2023-05-18T15:57:29.492Z,99335.59
2023-05-18T15:58:32.000Z,99329.78
2023-05-18T15:59:36.672Z,99340.41
2023-05-18T16:00:39.158Z,99330.66
2023-05-18T16:01:45.185Z,99324.75
2023-05-18T16:02:49.872Z,99328.47
2023-05-18T16:03:54.754Z,99330.50
2023-05-18T16:04:58.484Z,99323.63
2023-05-18T16:06:02.565Z,99319.22
2023-05-18T16:07:05.433Z,99324.16
2023-05-18T16:08:09.908Z,99326.69
2023-05-18T16:09:15.247Z,99329.09
2023-05-18T16:10:18.722Z,99329.34
2023-05-18T16:11:22.879Z,99327.50
2023-05-18T16:12:25.754Z,99326.25
2023-05-18T16:13:29.278Z,99330.75
2023-05-18T16:14:33.336Z,99328.25
2023-05-18T16:15:37.514Z,99332.88
2023-05-18T16:16:41.985Z,99331.16
2023-05-18T16:17:45.663Z,99331.09
2023-05-18T16:18:50.495Z,99325.56
2023-05-18T16:19:54.588Z,99322.25
2023-05-18T16:20:57.542Z,99321.56
2023-05-18T16:22:01.341Z,99317.56
2023-05-18T16:23:04.110Z,99327.38
2023-05-18T16:24:08.726Z,99319.06
2023-05-18T16:25:11.152Z,99319.81
2023-05-18T16:26:15.222Z,99325.16
2023-05-18T16:27:17.752Z,99319.81
2023-05-18T16:28:22.069Z,99317.84
2023-05-18T16:29:24.987Z,99324.25
2023-05-18T16:30:30.648Z,99327.81
2023-05-18T16:31:33.563Z,99324.66
2023-05-18T16:32:38.057Z,99325.56
2023-05-18T16:33:41.267Z,99326.97
2023-05-18T16:34:46.783Z,99328.56
2023-05-18T16:35:49.549Z,99329.94
2023-05-18T16:36:53.570Z,99336.09
2023-05-18T16:37:57.063Z,99342.53
2023-05-18T16:39:03.053Z,99337.50
2023-05-18T16:40:07.055Z,99338.84
2023-05-18T16:41:11.835Z,99341.66